createdAt,value
2023-01-18T00:04:38.911Z,97327.72
2023-01-18T00:09:40.340Z,97328.13
2023-01-18T00:14:41.802Z,97325.25
2023-01-18T00:19:43.655Z,97321.84
2023-01-18T00:24:45.050Z,97326.72
2023-01-18T00:29:46.415Z,97327.00
2023-01-18T00:34:50.367Z,97324.44
2023-01-18T00:39:51.886Z,97330.03
2023-01-18T00:44:53.295Z,97322.56
2023-01-18T00:49:54.669Z,97336.63
2023-01-18T00:54:56.213Z,97337.00
2023-01-18T00:59:57.578Z,97326.69
2023-01-18T01:05:17.245Z,97335.28
2023-01-18T01:10:18.636Z,97326.59
2023-01-18T01:15:38.617Z,97312.53
2023-01-18T01:20:58.274Z,97330.72
2023-01-18T01:26:08.920Z,97329.22
2023-01-18T01:31:12.042Z,97331.88
2023-01-18T01:36:17.993Z,97325.31
2023-01-18T01:41:30.323Z,97321.84
2023-01-18T01:46:53.469Z,97318.00
2023-01-18T01:52:00.209Z,97314.59
2023-01-18T01:57:10.759Z,97316.00
2023-01-18T02:02:12.244Z,97310.31
2023-01-18T02:07:13.765Z,97302.44
2023-01-18T02:12:15.143Z,97311.03
2023-01-18T02:17:44.417Z,97314.88
2023-01-18T02:23:22.745Z,97311.41
2023-01-18T02:28:25.446Z,97305.16
2023-01-18T02:33:31.855Z,97314.59
2023-01-18T02:38:41.049Z,97311.34
2023-01-18T02:44:01.390Z,97310.91
2023-01-18T02:49:18.300Z,97313.66
2023-01-18T02:54:24.208Z,97321.47
2023-01-18T02:59:32.383Z,97310.84
2023-01-18T03:04:45.333Z,97321.84
2023-01-18T03:09:46.721Z,97308.69
2023-01-18T03:14:55.439Z,97317.00
2023-01-18T03:20:09.015Z,97310.03
2023-01-18T03:25:11.129Z,97319.09
2023-01-18T03:30:31.394Z,97322.16
2023-01-18T03:35:32.765Z,97319.22
2023-01-18T03:40:35.423Z,97327.72
2023-01-18T03:45:43.652Z,97322.66
2023-01-18T03:50:52.271Z,97316.56
2023-01-18T03:55:56.715Z,97320.03
2023-01-18T04:00:58.286Z,97311.16
2023-01-18T04:06:00.681Z,97316.19
2023-01-18T04:11:02.089Z,97325.06
2023-01-18T04:16:04.788Z,97321.34
2023-01-18T04:21:06.235Z,97324.97
2023-01-18T04:26:07.617Z,97322.16
2023-01-18T04:31:09.065Z,97316.88
2023-01-18T04:36:10.486Z,97322.66
2023-01-18T04:41:11.954Z,97317.41
2023-01-18T04:46:14.588Z,97318.13
2023-01-18T04:51:16.028Z,97322.66
2023-01-18T04:56:17.529Z,97331.94
2023-01-18T05:01:18.975Z,97350.16
2023-01-18T05:06:20.532Z,97358.88
2023-01-18T05:11:23.168Z,97355.72
2023-01-18T05:16:24.726Z,97354.91
2023-01-18T05:21:26.460Z,97355.31
2023-01-18T05:26:27.914Z,97355.00
2023-01-18T05:31:29.371Z,97374.53
2023-01-18T05:36:30.815Z,97372.28
2023-01-18T05:41:32.213Z,97382.50
2023-01-18T05:46:33.594Z,97381.09
2023-01-18T05:51:35.215Z,97379.84
2023-01-18T05:56:37.030Z,97385.84
2023-01-18T06:01:38.456Z,97378.88
2023-01-18T06:06:39.866Z,97383.31
2023-01-18T06:11:42.477Z,97382.38
2023-01-18T06:16:43.882Z,97371.53
2023-01-18T06:21:45.406Z,97376.03
2023-01-18T06:26:46.814Z,97373.81
2023-01-18T06:31:48.252Z,97370.97
2023-01-18T06:36:49.664Z,97386.94
2023-01-18T06:41:51.058Z,97388.88
2023-01-18T06:46:52.432Z,97397.28
2023-01-18T06:51:53.804Z,97396.56
2023-01-18T06:56:55.190Z,97398.59
2023-01-18T07:01:56.706Z,97408.59
2023-01-18T07:06:58.673Z,97412.94
2023-01-18T07:12:00.080Z,97423.53
2023-01-18T07:17:01.598Z,97417.66
2023-01-18T07:22:03.022Z,97416.03
2023-01-18T07:27:04.976Z,97420.78
2023-01-18T07:32:06.394Z,97420.16
2023-01-18T07:37:07.808Z,97434.00
2023-01-18T07:42:09.192Z,97442.44
2023-01-18T07:47:10.563Z,97441.94
2023-01-18T07:52:11.949Z,97453.28
2023-01-18T07:57:13.501Z,97452.06
2023-01-18T08:02:14.988Z,97475.06
2023-01-18T08:07:17.723Z,97467.22
2023-01-18T08:12:19.103Z,97469.75
2023-01-18T08:17:20.485Z,97476.19
2023-01-18T08:22:21.949Z,97478.28
2023-01-18T08:27:24.316Z,97476.25
2023-01-18T08:32:27.174Z,97481.66
2023-01-18T08:37:28.601Z,97483.78
2023-01-18T08:42:30.005Z,97487.78
2023-01-18T08:47:31.389Z,97490.19
2023-01-18T08:52:34.782Z,97510.81
2023-01-18T08:57:36.182Z,97510.63
2023-01-18T09:02:37.637Z,97514.69
2023-01-18T09:07:39.038Z,97517.03
2023-01-18T09:12:40.558Z,97518.13
2023-01-18T09:17:42.072Z,97534.25
2023-01-18T09:22:44.489Z,97537.88
2023-01-18T09:27:46.478Z,97547.38
2023-01-18T09:32:47.891Z,97548.13
2023-01-18T09:37:49.271Z,97552.47
2023-01-18T09:42:51.257Z,97554.00
2023-01-18T09:47:55.195Z,97549.53
2023-01-18T09:53:17.612Z,97552.06
2023-01-18T09:58:37.371Z,97562.91
2023-01-18T10:03:58.794Z,97558.75
2023-01-18T10:09:07.331Z,97559.88
2023-01-18T10:14:33.115Z,97573.13
2023-01-18T10:19:34.491Z,97562.63
2023-01-18T10:24:41.507Z,97563.81
2023-01-18T10:30:06.049Z,97568.38
2023-01-18T10:35:15.127Z,97572.13
2023-01-18T10:40:16.622Z,97569.78
2023-01-18T10:45:21.467Z,97574.34
2023-01-18T10:50:37.126Z,97584.28
2023-01-18T10:55:38.738Z,97596.19
2023-01-18T11:00:40.248Z,97601.75
2023-01-18T11:05:44.245Z,97608.03
2023-01-18T11:10:45.786Z,97611.50
2023-01-18T11:15:47.179Z,97609.84
2023-01-18T11:20:49.964Z,97608.97
2023-01-18T11:25:52.677Z,97617.47
2023-01-18T11:31:08.866Z,97621.91
2023-01-18T11:36:10.240Z,97628.59
2023-01-18T11:41:19.482Z,97623.63
2023-01-18T11:46:35.095Z,97636.78
2023-01-18T11:51:43.684Z,97637.09
2023-01-18T11:56:50.920Z,97645.56
2023-01-18T12:02:17.300Z,97651.78
2023-01-18T12:07:34.849Z,97659.06
2023-01-18T12:12:57.998Z,97664.72
2023-01-18T12:18:24.647Z,97667.16
2023-01-18T12:23:44.358Z,97668.56
2023-01-18T12:28:50.362Z,97674.25
2023-01-18T12:34:14.004Z,97683.34
2023-01-18T12:39:39.817Z,97703.63
2023-01-18T12:44:56.254Z,97712.41
2023-01-18T12:49:57.626Z,97726.25
2023-01-18T12:55:00.713Z,97732.88
2023-01-18T13:00:14.222Z,97729.91
2023-01-18T13:05:23.609Z,97732.94
2023-01-18T13:10:25.903Z,97749.94
2023-01-18T13:15:53.721Z,97758.56
2023-01-18T13:21:27.545Z,97760.28
2023-01-18T13:26:30.439Z,97771.63
2023-01-18T13:31:31.916Z,97780.66
2023-01-18T13:36:44.423Z,97793.94
2023-01-18T13:42:04.214Z,97803.63
2023-01-18T13:47:42.126Z,97809.69
2023-01-18T13:52:43.821Z,97811.72
2023-01-18T13:57:45.199Z,97816.91
2023-01-18T14:02:50.187Z,97832.59
2023-01-18T14:07:58.884Z,97844.97
2023-01-18T14:13:02.439Z,97847.78
2023-01-18T14:18:04.130Z,97851.47
2023-01-18T14:23:11.715Z,97860.97
2023-01-18T14:28:14.931Z,97868.03
2023-01-18T14:33:36.298Z,97882.88
2023-01-18T14:38:37.873Z,97891.56
2023-01-18T14:43:43.411Z,97902.63
2023-01-18T14:48:57.206Z,97921.19
2023-01-18T14:54:00.429Z,97921.88
2023-01-18T14:59:11.619Z,97931.00
2023-01-18T15:04:19.828Z,97935.66
2023-01-18T15:09:21.610Z,97953.66
2023-01-18T15:14:25.357Z,97966.56
2023-01-18T15:19:38.397Z,97974.53
2023-01-18T15:24:40.861Z,97987.03
2023-01-18T15:29:46.831Z,97996.09
2023-01-18T15:34:49.497Z,98005.94
2023-01-18T15:39:56.665Z,98021.63
2023-01-18T15:44:58.240Z,98026.88
2023-01-18T15:50:00.561Z,98033.97
2023-01-18T15:55:06.458Z,98046.91
2023-01-18T16:00:31.914Z,98057.16
2023-01-18T16:05:33.165Z,98066.19
2023-01-18T16:10:34.693Z,98065.88
2023-01-18T16:15:36.125Z,98074.97
2023-01-18T16:20:37.521Z,98081.56
2023-01-18T16:25:38.989Z,98085.16
2023-01-18T16:30:40.410Z,98106.09
2023-01-18T16:35:42.097Z,98105.19
2023-01-18T16:40:45.080Z,98115.06
2023-01-18T16:45:47.987Z,98127.09
2023-01-18T16:50:49.414Z,98137.00
2023-01-18T16:55:50.802Z,98145.09
2023-01-18T17:01:14.130Z,98164.19
2023-01-18T17:06:18.043Z,98167.78
2023-01-18T17:11:19.421Z,98183.09
2023-01-18T17:16:20.816Z,98195.22
2023-01-18T17:21:22.345Z,98199.16
2023-01-18T17:26:23.872Z,98206.72
2023-01-18T17:31:25.255Z,98216.25
2023-01-18T17:36:26.688Z,98221.47
2023-01-18T17:41:29.262Z,98233.31
2023-01-18T17:46:32.126Z,98240.72
2023-01-18T17:51:35.382Z,98246.69
2023-01-18T17:56:37.132Z,98252.91
2023-01-18T18:01:38.596Z,98260.59
2023-01-18T18:06:46.033Z,98269.16
2023-01-18T18:11:51.186Z,98274.06
2023-01-18T18:16:52.712Z,98278.94
2023-01-18T18:21:54.163Z,98295.84
2023-01-18T18:26:55.650Z,98297.00
2023-01-18T18:31:57.062Z,98307.75
2023-01-18T18:36:58.469Z,98324.34
2023-01-18T18:42:00.299Z,98330.84
2023-01-18T18:47:03.391Z,98343.97
2023-01-18T18:52:05.911Z,98353.88
2023-01-18T18:57:07.433Z,98368.09
2023-01-18T19:02:13.248Z,98385.00
2023-01-18T19:07:17.249Z,98387.41
2023-01-18T19:12:18.644Z,98395.94
2023-01-18T19:17:29.717Z,98414.25
2023-01-18T19:22:32.409Z,98418.84
2023-01-18T19:27:34.086Z,98439.88
2023-01-18T19:32:35.990Z,98446.72
2023-01-18T19:37:37.422Z,98442.38
2023-01-18T19:42:38.869Z,98462.53
2023-01-18T19:47:41.220Z,98468.53
2023-01-18T19:52:43.062Z,98487.69
2023-01-18T19:57:44.586Z,98494.53
2023-01-18T20:02:46.058Z,98502.19
2023-01-18T20:07:47.810Z,98512.22
2023-01-18T20:12:49.477Z,98527.81
2023-01-18T20:17:50.846Z,98530.56
2023-01-18T20:22:52.214Z,98535.25
2023-01-18T20:27:53.590Z,98545.34
2023-01-18T20:32:55.168Z,98553.78
2023-01-18T20:37:56.644Z,98555.69
2023-01-18T20:42:58.830Z,98548.91
2023-01-18T20:48:00.566Z,98562.53
2023-01-18T20:53:02.332Z,98564.16
2023-01-18T20:58:04.524Z,98571.81
2023-01-18T21:03:05.999Z,98574.00
2023-01-18T21:08:07.387Z,98574.56
2023-01-18T21:13:09.357Z,98585.19
2023-01-18T21:18:10.762Z,98584.09
2023-01-18T21:23:12.147Z,98587.09
2023-01-18T21:28:13.531Z,98587.69
2023-01-18T21:33:14.908Z,98587.66
2023-01-18T21:38:16.497Z,98587.91
2023-01-18T21:43:37.424Z,98590.38
2023-01-18T21:48:38.834Z,98602.16
2023-01-18T21:54:01.786Z,98611.66
2023-01-18T21:59:03.210Z,98616.88
2023-01-18T22:04:25.173Z,98617.69
2023-01-18T22:09:27.411Z,98623.69
2023-01-18T22:14:29.072Z,98628.63
2023-01-18T22:19:30.468Z,98635.69
2023-01-18T22:24:31.838Z,98637.06
2023-01-18T22:29:33.321Z,98636.81
2023-01-18T22:34:34.729Z,98627.22
2023-01-18T22:39:36.129Z,98643.91
2023-01-18T22:44:37.713Z,98637.63
2023-01-18T22:49:39.115Z,98645.53
2023-01-18T22:54:41.561Z,98641.19
2023-01-18T22:59:42.986Z,98649.38
2023-01-18T23:04:44.397Z,98658.38
2023-01-18T23:09:45.778Z,98662.72
2023-01-18T23:15:05.577Z,98667.94
2023-01-18T23:20:08.325Z,98687.56
2023-01-18T23:25:09.845Z,98699.06
2023-01-18T23:30:11.707Z,98688.41
2023-01-18T23:35:13.118Z,98705.59
2023-01-18T23:40:32.978Z,98712.13
2023-01-18T23:45:52.709Z,98722.75
2023-01-18T23:51:12.422Z,98732.38
2023-01-18T23:56:13.796Z,98740.56
